Time;durP1;ratioP1;P1;durP2;ratioP2;P2;SDS_P1;SDS_P2;PMS_P1;PMS_P2;Temp;Humidity;BMP_temperature;BMP_pressure;BME280_temperature;BME280_humidity;BME280_pressure;Samples;Min_cycle;Max_cycle;Signal;HPM_P1;HPM_P2
2021/03/23 00:00:44;;;;;;;7.03;2.78;;;;;;;;;;5113541;28;20040;-88
2021/03/23 00:03:22;;;;;;;5.28;1.90;;;;;;;;;;5129536;28;20115;-88
2021/03/23 00:05:51;;;;;;;6.43;2.33;;;;;;;;;;5130347;28;20044;-87
2021/03/23 00:08:28;;;;;;;5.88;2.28;;;;;;;;;;5112929;28;20622;-87
2021/03/23 00:10:56;;;;;;;4.47;2.00;;;;;;;;;;5112904;28;20418;-87
2021/03/23 00:13:24;;;;;;;5.07;2.00;;;;;;;;;;5129708;28;20086;-88
2021/03/23 00:15:51;;;;;;;5.00;2.00;;;;;;;;;;5112523;28;20040;-87
2021/03/23 00:18:19;;;;;;;6.80;2.17;;;;;;;;;;5095485;28;20044;-88
2021/03/23 00:20:47;;;;;;;4.38;2.15;;;;;;;;;;5112490;28;20050;-87
2021/03/23 00:23:15;;;;;;;4.95;2.20;;;;;;;;;;5129018;28;20080;-88
2021/03/23 00:25:42;;;;;;;5.07;2.25;;;;;;;;;;5112805;28;20040;-87
2021/03/23 00:28:10;;;;;;;5.78;1.95;;;;;;;;;;5095507;28;20047;-88
2021/03/23 00:30:38;;;;;;;6.88;2.22;;;;;;;;;;5129929;28;20055;-87
2021/03/23 00:33:05;;;;;;;5.93;2.55;;;;;;;;;;5112018;28;20048;-88
2021/03/23 00:35:32;;;;;;;6.38;2.70;;;;;;;;;;5129254;28;20203;-88
2021/03/23 00:38:02;;;;;;;6.55;2.10;;;;;;;;;;5095809;28;20039;-88
2021/03/23 00:40:31;;;;;;;5.38;2.63;;;;;;;;;;5129786;28;20234;-88
2021/03/23 00:43:06;;;;;;;5.35;2.10;;;;;;;;;;5112494;28;20188;-88
2021/03/23 00:45:36;;;;;;;8.68;2.47;;;;;;;;;;5129298;28;20036;-87
2021/03/23 00:48:04;;;;;;;4.93;2.30;;;;;;;;;;5112429;28;20047;-88
2021/03/23 00:50:31;;;;;;;4.97;2.42;;;;;;;;;;5112466;28;20035;-88
2021/03/23 00:52:58;;;;;;;5.20;2.50;;;;;;;;;;5112246;28;20060;-88
2021/03/23 00:55:25;;;;;;;5.80;2.60;;;;;;;;;;5095074;28;20052;-88
2021/03/23 00:57:53;;;;;;;5.35;2.20;;;;;;;;;;5128404;28;20040;-87
2021/03/23 01:00:21;;;;;;;6.18;2.30;;;;;;;;;;5095554;28;20564;-88
2021/03/23 01:02:48;;;;;;;6.30;2.20;;;;;;;;;;5128883;28;20036;-87
2021/03/23 01:05:17;;;;;;;5.75;2.20;;;;;;;;;;5111767;28;20051;-88
2021/03/23 01:07:44;;;;;;;6.38;2.28;;;;;;;;;;5128750;28;20051;-87
2021/03/23 01:10:13;;;;;;;5.45;2.60;;;;;;;;;;5128112;28;20059;-88
2021/03/23 01:12:41;;;;;;;8.43;3.20;;;;;;;;;;5111849;28;20059;-87
2021/03/23 01:15:10;;;;;;;10.32;3.35;;;;;;;;;;5112089;28;20383;-90
2021/03/23 01:17:37;;;;;;;12.00;3.50;;;;;;;;;;5128564;28;20392;-87
2021/03/23 01:20:05;;;;;;;8.23;2.97;;;;;;;;;;5095228;28;20050;-87
2021/03/23 01:22:32;;;;;;;7.28;3.03;;;;;;;;;;5111162;28;20344;-87
2021/03/23 01:25:00;;;;;;;6.10;2.63;;;;;;;;;;5112115;28;20040;-87
2021/03/23 01:27:27;;;;;;;9.10;2.72;;;;;;;;;;5094874;28;20043;-88
2021/03/23 01:29:54;;;;;;;6.35;2.50;;;;;;;;;;5095004;28;20097;-87
2021/03/23 01:32:22;;;;;;;8.45;2.72;;;;;;;;;;5110880;28;20197;-88
2021/03/23 01:34:49;;;;;;;7.65;2.63;;;;;;;;;;5112318;28;20051;-88
2021/03/23 01:37:17;;;;;;;8.60;2.30;;;;;;;;;;5094804;28;20396;-88
2021/03/23 01:39:45;;;;;;;8.65;2.70;;;;;;;;;;5094722;28;20052;-87
2021/03/23 01:42:14;;;;;;;9.05;2.70;;;;;;;;;;5111307;28;20047;-88
2021/03/23 01:44:45;;;;;;;7.38;2.40;;;;;;;;;;5128810;28;20070;-87
2021/03/23 01:47:13;;;;;;;6.63;2.55;;;;;;;;;;5111384;28;20048;-89
2021/03/23 01:49:43;;;;;;;5.78;2.38;;;;;;;;;;5095472;28;20460;-87
2021/03/23 01:52:19;;;;;;;6.30;2.40;;;;;;;;;;5129059;28;20063;-89
2021/03/23 01:54:49;;;;;;;4.90;2.10;;;;;;;;;;5128586;28;20036;-87
2021/03/23 01:57:17;;;;;;;5.03;2.33;;;;;;;;;;5110549;28;20040;-88
2021/03/23 01:59:46;;;;;;;6.72;2.13;;;;;;;;;;5127969;28;20036;-88
2021/03/23 02:02:13;;;;;;;6.70;2.33;;;;;;;;;;5111997;28;20044;-87
2021/03/23 02:04:41;;;;;;;6.78;2.30;;;;;;;;;;5111858;28;20040;-88
2021/03/23 02:07:08;;;;;;;8.43;2.38;;;;;;;;;;5111812;28;20044;-87
2021/03/23 02:09:36;;;;;;;9.63;2.45;;;;;;;;;;5111256;28;20756;-88
2021/03/23 02:12:11;;;;;;;10.57;2.70;;;;;;;;;;5127964;28;20040;-88
2021/03/23 02:14:41;;;;;;;6.95;2.40;;;;;;;;;;5111406;28;20047;-88
2021/03/23 02:17:19;;;;;;;4.82;2.38;;;;;;;;;;5112191;28;20040;-87
2021/03/23 02:19:46;;;;;;;6.28;1.98;;;;;;;;;;5128854;28;20039;-88
2021/03/23 02:22:34;;;;;;;5.03;2.33;;;;;;;;;;5112088;28;20049;-88
2021/03/23 02:25:02;;;;;;;6.97;2.38;;;;;;;;;;5112296;28;20036;-88
2021/03/23 02:27:30;;;;;;;5.63;2.97;;;;;;;;;;5112159;28;20113;-88
2021/03/23 02:29:59;;;;;;;6.20;2.83;;;;;;;;;;5113243;28;20075;-88
2021/03/23 02:32:27;;;;;;;8.98;3.40;;;;;;;;;;5112402;28;20044;-88
2021/03/23 02:34:54;;;;;;;6.47;2.78;;;;;;;;;;5111767;28;20051;-88
2021/03/23 02:37:22;;;;;;;9.57;3.22;;;;;;;;;;5128312;28;20097;-89
2021/03/23 02:39:49;;;;;;;6.18;2.88;;;;;;;;;;5111866;28;20040;-88
2021/03/23 02:42:17;;;;;;;5.93;3.08;;;;;;;;;;5129304;28;20138;-88
2021/03/23 02:44:46;;;;;;;7.40;3.05;;;;;;;;;;5097776;28;20055;-88
2021/03/23 02:47:14;;;;;;;7.93;3.30;;;;;;;;;;5114550;28;20054;-88
2021/03/23 02:49:42;;;;;;;7.50;2.80;;;;;;;;;;5114144;28;20381;-88
2021/03/23 02:52:10;;;;;;;6.00;3.00;;;;;;;;;;5097970;28;20066;-87
2021/03/23 02:54:37;;;;;;;6.13;3.00;;;;;;;;;;5131412;28;20036;-87
2021/03/23 02:57:05;;;;;;;8.15;3.08;;;;;;;;;;5131766;28;20036;-87
2021/03/23 02:59:32;;;;;;;8.50;2.90;;;;;;;;;;5114888;28;20036;-88
2021/03/23 03:01:59;;;;;;;10.15;2.97;;;;;;;;;;5131620;28;20040;-87
2021/03/23 03:04:27;;;;;;;6.40;3.13;;;;;;;;;;5097721;28;20093;-87
2021/03/23 03:06:54;;;;;;;9.05;3.05;;;;;;;;;;5098174;28;20099;-88
2021/03/23 03:09:21;;;;;;;6.30;3.15;;;;;;;;;;5115085;28;20047;-87
2021/03/23 03:11:50;;;;;;;8.15;3.50;;;;;;;;;;5114065;28;20461;-88
2021/03/23 03:14:18;;;;;;;6.97;3.10;;;;;;;;;;5097771;28;20044;-88
2021/03/23 03:16:45;;;;;;;6.80;3.17;;;;;;;;;;5113842;28;20169;-87
2021/03/23 03:19:13;;;;;;;7.13;3.60;;;;;;;;;;5130972;28;20112;-87
2021/03/23 03:21:40;;;;;;;9.15;3.92;;;;;;;;;;5113840;28;20056;-87
2021/03/23 03:24:08;;;;;;;8.15;3.95;;;;;;;;;;5114783;28;20491;-88
2021/03/23 03:26:35;;;;;;;8.48;4.10;;;;;;;;;;5097853;28;20044;-88
2021/03/23 03:29:03;;;;;;;11.10;4.15;;;;;;;;;;5114464;28;20051;-88
2021/03/23 03:31:32;;;;;;;11.30;4.32;;;;;;;;;;5114377;28;20373;-88
2021/03/23 03:34:00;;;;;;;9.85;4.43;;;;;;;;;;5132341;28;20169;-88
2021/03/23 03:36:28;;;;;;;8.45;4.57;;;;;;;;;;5113852;28;20044;-88
2021/03/23 03:38:56;;;;;;;9.25;5.18;;;;;;;;;;5114019;28;20472;-88
2021/03/23 03:41:24;;;;;;;12.63;5.00;;;;;;;;;;5130812;28;20036;-87
2021/03/23 03:43:53;;;;;;;10.55;4.85;;;;;;;;;;5130603;28;20682;-88
2021/03/23 03:46:20;;;;;;;13.50;5.70;;;;;;;;;;5114140;28;20069;-87
2021/03/23 03:48:48;;;;;;;12.35;5.93;;;;;;;;;;5113414;28;20480;-87
2021/03/23 03:51:16;;;;;;;14.15;5.68;;;;;;;;;;5130715;28;20051;-87
2021/03/23 03:53:44;;;;;;;11.10;6.22;;;;;;;;;;5112545;28;20071;-87
2021/03/23 03:56:11;;;;;;;14.57;6.95;;;;;;;;;;5130233;28;20476;-87
2021/03/23 03:58:38;;;;;;;15.70;7.47;;;;;;;;;;5112773;28;20051;-88
2021/03/23 04:01:05;;;;;;;14.15;7.28;;;;;;;;;;5113515;28;20048;-88
2021/03/23 04:03:33;;;;;;;14.13;7.30;;;;;;;;;;5113616;28;20048;-89
2021/03/23 04:06:01;;;;;;;17.95;8.48;;;;;;;;;;5130524;28;20536;-88
2021/03/23 04:08:29;;;;;;;16.10;8.48;;;;;;;;;;5113834;28;20055;-88
2021/03/23 04:10:58;;;;;;;16.85;9.80;;;;;;;;;;5113759;28;20139;-88
2021/03/23 04:13:27;;;;;;;22.00;9.73;;;;;;;;;;5114017;28;20048;-87
2021/03/23 04:15:55;;;;;;;23.63;10.88;;;;;;;;;;5113088;28;20484;-88
2021/03/23 04:18:23;;;;;;;21.85;11.60;;;;;;;;;;5113148;28;20028;-88
2021/03/23 04:20:51;;;;;;;22.45;11.32;;;;;;;;;;5113248;28;20063;-88
2021/03/23 04:23:25;;;;;;;24.67;12.35;;;;;;;;;;5113276;28;20059;-88
2021/03/23 04:25:53;;;;;;;22.42;12.25;;;;;;;;;;5112957;28;20472;-88
2021/03/23 04:28:21;;;;;;;22.08;11.35;;;;;;;;;;5113365;28;20052;-87
2021/03/23 04:30:48;;;;;;;20.38;11.15;;;;;;;;;;5096390;28;20052;-88
2021/03/23 04:33:18;;;;;;;17.88;9.50;;;;;;;;;;5129493;28;20035;-87
2021/03/23 04:35:47;;;;;;;16.23;9.93;;;;;;;;;;5129481;28;20036;-88
2021/03/23 04:38:16;;;;;;;18.75;9.45;;;;;;;;;;5112580;28;20064;-87
2021/03/23 04:40:45;;;;;;;21.90;8.95;;;;;;;;;;5129945;28;20092;-88
2021/03/23 04:43:17;;;;;;;17.90;9.27;;;;;;;;;;5112754;28;20044;-87
2021/03/23 04:45:45;;;;;;;14.82;8.40;;;;;;;;;;5128532;28;20032;-87
2021/03/23 04:48:12;;;;;;;20.58;8.88;;;;;;;;;;5112009;28;20097;-88
2021/03/23 04:50:40;;;;;;;20.77;8.98;;;;;;;;;;5111633;28;20100;-89
2021/03/23 04:53:07;;;;;;;19.20;9.30;;;;;;;;;;5111897;28;20496;-87
2021/03/23 04:55:34;;;;;;;21.15;9.82;;;;;;;;;;5111754;28;20169;-88
2021/03/23 04:58:02;;;;;;;16.17;9.40;;;;;;;;;;5111186;28;20040;-87
2021/03/23 05:00:29;;;;;;;19.15;9.20;;;;;;;;;;5112030;28;20068;-88
2021/03/23 05:02:56;;;;;;;19.77;10.38;;;;;;;;;;5112077;28;20450;-88
2021/03/23 05:05:24;;;;;;;24.75;12.65;;;;;;;;;;5112056;28;20400;-88
2021/03/23 05:07:51;;;;;;;21.17;12.10;;;;;;;;;;5095227;28;20048;-88
2021/03/23 05:10:18;;;;;;;26.63;13.80;;;;;;;;;;5095214;28;20412;-88
2021/03/23 05:12:45;;;;;;;23.50;12.73;;;;;;;;;;5111948;28;20474;-88
2021/03/23 05:15:13;;;;;;;23.10;13.23;;;;;;;;;;5111799;28;20055;-88
2021/03/23 05:17:40;;;;;;;22.02;12.20;;;;;;;;;;5111398;28;20048;-87
2021/03/23 05:20:08;;;;;;;23.73;12.73;;;;;;;;;;5128163;28;20563;-88
2021/03/23 05:22:35;;;;;;;20.85;11.32;;;;;;;;;;5111452;28;20051;-87
2021/03/23 05:25:03;;;;;;;21.02;10.93;;;;;;;;;;5111538;28;20043;-88
2021/03/23 05:27:30;;;;;;;20.65;11.02;;;;;;;;;;5111989;28;20127;-88
2021/03/23 05:29:58;;;;;;;19.70;10.25;;;;;;;;;;5127733;28;20404;-88
2021/03/23 05:32:25;;;;;;;19.95;10.18;;;;;;;;;;5112115;28;20491;-88
2021/03/23 05:34:53;;;;;;;17.52;10.20;;;;;;;;;;5111331;28;20040;-88
2021/03/23 05:37:20;;;;;;;17.77;9.82;;;;;;;;;;5129659;28;20428;-88
2021/03/23 05:39:48;;;;;;;20.60;10.55;;;;;;;;;;5127380;28;20396;-88
2021/03/23 05:42:36;;;;;;;19.48;10.38;;;;;;;;;;5128373;28;20028;-88
2021/03/23 05:45:15;;;;;;;19.52;9.48;;;;;;;;;;5127810;28;20162;-88
2021/03/23 05:47:44;;;;;;;23.65;11.63;;;;;;;;;;5111412;28;20051;-88
2021/03/23 05:50:15;;;;;;;26.45;12.02;;;;;;;;;;5110458;28;20468;-89
2021/03/23 05:53:05;;;;;;;20.83;10.98;;;;;;;;;;5110795;28;20054;-89
2021/03/23 05:55:42;;;;;;;24.38;11.68;;;;;;;;;;5111669;28;20048;-88
2021/03/23 05:58:18;;;;;;;21.02;11.23;;;;;;;;;;5111676;28;20337;-88
2021/03/23 06:00:50;;;;;;;24.70;11.52;;;;;;;;;;5111567;28;20079;-88
2021/03/23 06:03:19;;;;;;;21.05;12.05;;;;;;;;;;5128733;28;20066;-89
2021/03/23 06:05:47;;;;;;;20.65;11.68;;;;;;;;;;5112166;28;20040;-88
2021/03/23 06:08:20;;;;;;;24.33;12.43;;;;;;;;;;5128746;28;20473;-87
2021/03/23 06:11:13;;;;;;;23.42;12.18;;;;;;;;;;5112343;28;20048;-89
2021/03/23 06:13:43;;;;;;;26.13;12.15;;;;;;;;;;5111331;28;20056;-88
2021/03/23 06:16:20;;;;;;;24.85;12.82;;;;;;;;;;5111442;28;20078;-86
2021/03/23 06:19:06;;;;;;;26.45;11.95;;;;;;;;;;5132390;28;20468;-86
2021/03/23 06:21:56;;;;;;;21.60;10.70;;;;;;;;;;5115692;28;20423;-87
2021/03/23 06:24:30;;;;;;;23.35;11.93;;;;;;;;;;5119744;28;20298;-87
2021/03/23 06:27:18;;;;;;;24.90;12.02;;;;;;;;;;5114684;28;20419;-87
2021/03/23 06:30:00;;;;;;;23.25;12.40;;;;;;;;;;5132528;28;20123;-87
2021/03/23 06:32:35;;;;;;;19.95;11.85;;;;;;;;;;5115668;28;20051;-87
2021/03/23 06:35:03;;;;;;;26.85;12.88;;;;;;;;;;5115085;28;20064;-87
2021/03/23 06:37:49;;;;;;;25.63;14.02;;;;;;;;;;5131787;28;20036;-86
2021/03/23 06:40:20;;;;;;;25.67;13.27;;;;;;;;;;5131693;28;20036;-87
2021/03/23 06:42:51;;;;;;;23.30;14.00;;;;;;;;;;5133544;28;20118;-87
2021/03/23 06:45:21;;;;;;;27.63;14.18;;;;;;;;;;5115104;28;20051;-87
2021/03/23 06:47:51;;;;;;;28.00;13.38;;;;;;;;;;5114472;28;20054;-87
2021/03/23 06:50:30;;;;;;;24.58;13.00;;;;;;;;;;5130933;28;20043;-87
2021/03/23 06:53:05;;;;;;;29.45;14.07;;;;;;;;;;5114864;28;20044;-88
2021/03/23 06:55:32;;;;;;;28.02;13.45;;;;;;;;;;5115015;28;20399;-87
2021/03/23 06:58:00;;;;;;;22.85;12.98;;;;;;;;;;5113620;28;20131;-88
2021/03/23 07:00:30;;;;;;;24.83;13.15;;;;;;;;;;5130742;28;20036;-87
2021/03/23 07:03:30;;;;;;;29.73;12.70;;;;;;;;;;5130703;28;20036;-88
2021/03/23 07:05:57;;;;;;;22.58;12.73;;;;;;;;;;5061727;28;20040;-87
2021/03/23 07:08:26;;;;;;;23.23;12.75;;;;;;;;;;5113502;28;20101;-87
2021/03/23 07:10:54;;;;;;;21.75;11.30;;;;;;;;;;5113817;28;20052;-87
2021/03/23 07:13:30;;;;;;;25.92;12.10;;;;;;;;;;5130940;28;20395;-87
2021/03/23 07:16:02;;;;;;;24.85;12.35;;;;;;;;;;5130403;28;20036;-87
2021/03/23 07:18:31;;;;;;;27.58;12.60;;;;;;;;;;5113139;28;20043;-87
2021/03/23 07:21:01;;;;;;;24.17;13.02;;;;;;;;;;5113233;28;20040;-86
2021/03/23 07:23:30;;;;;;;22.45;13.23;;;;;;;;;;5131303;28;20442;-91
2021/03/23 07:26:16;;;;;;;25.42;12.18;;;;;;;;;;5129756;28;20032;-88
2021/03/23 07:28:44;;;;;;;24.13;13.20;;;;;;;;;;5112681;28;20048;-87
2021/03/23 07:31:20;;;;;;;24.75;13.65;;;;;;;;;;5114560;28;20044;-88
2021/03/23 07:33:56;;;;;;;21.55;12.57;;;;;;;;;;5124256;28;20032;-87
2021/03/23 07:36:26;;;;;;;22.88;11.88;;;;;;;;;;5151842;28;20905;-88
2021/03/23 07:39:12;;;;;;;25.17;13.25;;;;;;;;;;5126811;28;20036;-88
2021/03/23 07:41:41;;;;;;;25.27;14.25;;;;;;;;;;5132130;28;20040;-87
2021/03/23 07:44:17;;;;;;;19.88;13.60;;;;;;;;;;5115135;28;20060;-87
2021/03/23 07:46:46;;;;;;;22.85;13.98;;;;;;;;;;5129922;28;20039;-87
2021/03/23 07:49:17;;;;;;;25.20;14.43;;;;;;;;;;5108658;28;20135;-86
2021/03/23 07:51:45;;;;;;;25.13;13.70;;;;;;;;;;5110334;28;20119;-86
2021/03/23 07:54:13;;;;;;;24.00;13.52;;;;;;;;;;5118395;28;20036;-87
2021/03/23 07:57:04;;;;;;;25.30;14.75;;;;;;;;;;5112661;28;20044;-86
2021/03/23 07:59:50;;;;;;;25.65;14.45;;;;;;;;;;5116390;28;20063;-87
2021/03/23 08:02:36;;;;;;;27.52;14.38;;;;;;;;;;5111646;28;20055;-87
2021/03/23 08:05:08;;;;;;;25.13;14.15;;;;;;;;;;5130220;28;20068;-87
2021/03/23 08:07:39;;;;;;;23.33;14.50;;;;;;;;;;5128857;28;20028;-86
2021/03/23 08:10:25;;;;;;;25.58;14.40;;;;;;;;;;5110317;28;20032;-86
2021/03/23 08:12:58;;;;;;;22.27;14.65;;;;;;;;;;5109483;28;20120;-86
2021/03/23 08:15:34;;;;;;;27.33;15.35;;;;;;;;;;5107719;28;20490;-85
2021/03/23 08:18:20;;;;;;;28.23;14.38;;;;;;;;;;5091589;28;20443;-87
2021/03/23 08:20:52;;;;;;;21.30;14.07;;;;;;;;;;5108050;28;20033;-86
2021/03/23 08:23:38;;;;;;;28.33;15.93;;;;;;;;;;5090782;28;20538;-87
2021/03/23 08:26:17;;;;;;;26.92;14.85;;;;;;;;;;5109510;28;20407;-86
2021/03/23 08:29:05;;;;;;;26.88;15.35;;;;;;;;;;5128258;28;20040;-86
2021/03/23 08:31:45;;;;;;;29.30;16.02;;;;;;;;;;5127658;28;20039;-85
2021/03/23 08:34:24;;;;;;;29.25;16.23;;;;;;;;;;5121082;28;20400;-86
2021/03/23 08:37:10;;;;;;;27.65;16.42;;;;;;;;;;5111326;28;20107;-86
2021/03/23 08:39:56;;;;;;;30.35;16.23;;;;;;;;;;5108219;28;20086;-86
2021/03/23 08:42:25;;;;;;;26.60;16.63;;;;;;;;;;5090663;28;20079;-86
2021/03/23 08:44:52;;;;;;;28.55;17.27;;;;;;;;;;5106493;28;20617;-84
2021/03/23 08:47:39;;;;;;;30.15;17.27;;;;;;;;;;5105818;28;20119;-84
2021/03/23 08:50:10;;;;;;;32.20;17.10;;;;;;;;;;5108273;28;20044;-85
2021/03/23 08:52:42;;;;;;;28.83;17.33;;;;;;;;;;5127632;28;20476;-85
2021/03/23 08:55:27;;;;;;;32.83;19.00;;;;;;;;;;5127079;28;20082;-85
2021/03/23 08:57:59;;;;;;;29.30;18.17;;;;;;;;;;5110590;28;20077;-86
2021/03/23 09:00:35;;;;;;;26.67;17.42;;;;;;;;;;5127173;28;20115;-84
2021/03/23 09:03:22;;;;;;;34.03;19.85;;;;;;;;;;5116020;28;20055;-85
2021/03/23 09:05:50;;;;;;;30.73;18.58;;;;;;;;;;5122455;28;20357;-85
2021/03/23 09:08:39;;;;;;;27.88;17.80;;;;;;;;;;5126603;28;20054;-86
2021/03/23 09:11:08;;;;;;;29.13;18.70;;;;;;;;;;5127010;28;20077;-85
2021/03/23 09:13:35;;;;;;;32.22;19.17;;;;;;;;;;5126730;28;20460;-85
2021/03/23 09:16:16;;;;;;;29.98;18.70;;;;;;;;;;5126648;28;20120;-85
2021/03/23 09:19:03;;;;;;;32.67;18.95;;;;;;;;;;5127381;28;20047;-85
2021/03/23 09:21:30;;;;;;;;;;;;;;;;;;5127068;28;20028;-85
2021/03/23 09:23:57;;;;;;;32.38;19.80;;;;;;;;;;5127012;28;19916;-85
2021/03/23 09:26:48;;;;;;;32.00;20.25;;;;;;;;;;5109987;28;20511;-84
2021/03/23 09:29:30;;;;;;;30.95;19.50;;;;;;;;;;5127154;28;20040;-85
2021/03/23 09:31:58;;;;;;;30.63;18.17;;;;;;;;;;5126848;28;20047;-85
2021/03/23 09:34:44;;;;;;;32.30;19.42;;;;;;;;;;5126282;28;20036;-84
2021/03/23 09:37:31;;;;;;;30.33;19.30;;;;;;;;;;5126930;28;20082;-89
2021/03/23 09:40:01;;;;;;;31.35;18.55;;;;;;;;;;5128125;28;20067;-89
2021/03/23 09:42:36;;;;;;;31.48;18.55;;;;;;;;;;5127882;28;20060;-82
2021/03/23 09:45:04;;;;;;;31.60;18.50;;;;;;;;;;5126748;28;20047;-84
2021/03/23 09:47:51;;;;;;;29.45;18.75;;;;;;;;;;5126237;28;20111;-82
2021/03/23 09:50:22;;;;;;;30.17;19.02;;;;;;;;;;5126745;28;20044;-85
2021/03/23 09:52:58;;;;;;;28.90;18.35;;;;;;;;;;5125861;28;20068;-85
2021/03/23 09:55:26;;;;;;;34.13;18.80;;;;;;;;;;5109583;28;20052;-85
2021/03/23 09:57:55;;;;;;;30.15;19.40;;;;;;;;;;5109971;28;20203;-85
2021/03/23 10:00:28;;;;;;;29.08;18.38;;;;;;;;;;5126064;28;20036;-85
2021/03/23 10:02:56;;;;;;;30.40;19.10;;;;;;;;;;5109240;28;20051;-85
2021/03/23 10:05:25;;;;;;;30.23;18.67;;;;;;;;;;5126242;28;20043;-85
2021/03/23 10:07:53;;;;;;;30.85;19.33;;;;;;;;;;5126229;28;20032;-85
2021/03/23 10:10:29;;;;;;;32.30;19.08;;;;;;;;;;5113869;28;20040;-85
2021/03/23 10:12:58;;;;;;;33.60;19.30;;;;;;;;;;5109774;28;20075;-84
2021/03/23 10:15:36;;;;;;;33.20;20.17;;;;;;;;;;5125334;28;20032;-84
2021/03/23 10:18:10;;;;;;;32.83;19.55;;;;;;;;;;5115983;28;20036;-85
2021/03/23 10:20:37;;;;;;;29.73;18.85;;;;;;;;;;5105745;28;20040;-85
2021/03/23 10:23:05;;;;;;;34.15;19.45;;;;;;;;;;5105695;28;20052;-84
2021/03/23 10:25:33;;;;;;;33.22;20.48;;;;;;;;;;5105663;28;20469;-85
2021/03/23 10:28:01;;;;;;;31.40;20.23;;;;;;;;;;5107188;28;20041;-85
2021/03/23 10:30:28;;;;;;;31.10;18.73;;;;;;;;;;5105506;28;20064;-85
2021/03/23 10:33:00;;;;;;;28.27;18.27;;;;;;;;;;5105991;28;20370;-86
2021/03/23 10:35:30;;;;;;;29.08;18.98;;;;;;;;;;5105526;28;20070;-84
2021/03/23 10:38:13;;;;;;;30.08;18.63;;;;;;;;;;5108831;28;20044;-85
2021/03/23 10:40:41;;;;;;;26.88;18.08;;;;;;;;;;5089205;28;20392;-82
2021/03/23 10:43:12;;;;;;;32.20;19.73;;;;;;;;;;5112974;28;20036;-84
2021/03/23 10:45:41;;;;;;;32.17;18.77;;;;;;;;;;5125696;28;20082;-86
2021/03/23 10:48:24;;;;;;;29.95;19.60;;;;;;;;;;5127823;28;20047;-86
2021/03/23 10:51:11;;;;;;;26.80;18.63;;;;;;;;;;5127110;28;20040;-86
2021/03/23 10:53:39;;;;;;;31.70;20.38;;;;;;;;;;5125662;28;20028;-85
2021/03/23 10:56:20;;;;;;;29.80;19.05;;;;;;;;;;5109353;28;20032;-85
2021/03/23 10:59:06;;;;;;;29.73;20.08;;;;;;;;;;5125675;28;20036;-85
2021/03/23 11:01:33;;;;;;;29.20;18.70;;;;;;;;;;5125623;28;20040;-86
2021/03/23 11:04:11;;;;;;;30.85;19.92;;;;;;;;;;5094900;28;20089;-86
2021/03/23 11:06:40;;;;;;;28.52;19.42;;;;;;;;;;5129256;28;20036;-86
2021/03/23 11:09:08;;;;;;;31.42;19.65;;;;;;;;;;5114226;28;20455;-85
2021/03/23 11:11:36;;;;;;;33.05;19.38;;;;;;;;;;5123428;28;20120;-87
2021/03/23 11:14:04;;;;;;;32.95;20.63;;;;;;;;;;5115671;28;20044;-86
2021/03/23 11:16:32;;;;;;;31.50;19.40;;;;;;;;;;5109737;28;20058;-86
2021/03/23 11:19:05;;;;;;;30.92;18.92;;;;;;;;;;5075891;28;20052;-86
2021/03/23 11:21:34;;;;;;;30.80;18.85;;;;;;;;;;5108064;28;20070;-87
2021/03/23 11:24:02;;;;;;;30.85;19.10;;;;;;;;;;5109286;28;20044;-85
2021/03/23 11:26:29;;;;;;;31.50;20.10;;;;;;;;;;5092202;28;20112;-87
2021/03/23 11:28:59;;;;;;;28.65;19.60;;;;;;;;;;5109019;28;20488;-87
2021/03/23 11:31:28;;;;;;;27.73;19.75;;;;;;;;;;5109271;28;20115;-89
2021/03/23 11:33:56;;;;;;;30.52;19.80;;;;;;;;;;5092605;28;20552;-88
2021/03/23 11:36:24;;;;;;;31.80;19.75;;;;;;;;;;5108812;28;20082;-85
2021/03/23 11:38:51;;;;;;;31.08;20.70;;;;;;;;;;5091687;28;20041;-88
2021/03/23 11:41:22;;;;;;;29.50;20.80;;;;;;;;;;5076176;28;20048;-87
2021/03/23 11:43:51;;;;;;;30.10;21.02;;;;;;;;;;5109410;28;20068;-87
2021/03/23 11:46:22;;;;;;;33.05;21.55;;;;;;;;;;5125407;28;20051;-87
2021/03/23 11:48:53;;;;;;;28.50;19.88;;;;;;;;;;5128493;28;20085;-87
2021/03/23 11:51:23;;;;;;;28.55;19.23;;;;;;;;;;5128701;28;20135;-87
2021/03/23 11:53:51;;;;;;;33.80;20.73;;;;;;;;;;5128872;28;20078;-89
2021/03/23 11:56:18;;;;;;;33.63;20.55;;;;;;;;;;5112009;28;20036;-87
2021/03/23 11:58:46;;;;;;;29.95;20.58;;;;;;;;;;5115028;28;20400;-87
2021/03/23 12:01:13;;;;;;;33.47;20.90;;;;;;;;;;5091886;28;20496;-87
2021/03/23 12:03:40;;;;;;;27.10;19.10;;;;;;;;;;5095071;28;20028;-87
2021/03/23 12:06:08;;;;;;;34.75;19.48;;;;;;;;;;5103536;28;20059;-87
2021/03/23 12:08:36;;;;;;;31.90;21.00;;;;;;;;;;5122426;28;20460;-87
2021/03/23 12:11:13;;;;;;;30.55;20.95;;;;;;;;;;5128283;28;20127;-87
2021/03/23 12:13:52;;;;;;;31.95;21.00;;;;;;;;;;5128290;28;20066;-88
2021/03/23 12:16:32;;;;;;;33.10;21.52;;;;;;;;;;5125842;28;20508;-86
2021/03/23 12:19:04;;;;;;;31.08;21.55;;;;;;;;;;5128193;28;20032;-88
2021/03/23 12:21:32;;;;;;;30.73;22.15;;;;;;;;;;5128203;28;20119;-87
2021/03/23 12:24:00;;;;;;;34.13;22.88;;;;;;;;;;5127791;28;20576;-87
2021/03/23 12:26:27;;;;;;;34.45;21.25;;;;;;;;;;5111574;28;20036;-87
2021/03/23 12:28:54;;;;;;;32.38;21.92;;;;;;;;;;5094417;28;20052;-86
2021/03/23 12:31:22;;;;;;;33.80;21.98;;;;;;;;;;5114733;28;20036;-87
2021/03/23 12:33:49;;;;;;;32.05;22.35;;;;;;;;;;5110968;28;20042;-86
2021/03/23 12:36:17;;;;;;;30.08;21.50;;;;;;;;;;5110956;28;20093;-86
2021/03/23 12:38:46;;;;;;;32.60;21.52;;;;;;;;;;5127247;28;20066;-87
2021/03/23 12:41:17;;;;;;;31.55;21.90;;;;;;;;;;5127845;28;20040;-86
2021/03/23 12:43:50;;;;;;;33.50;21.63;;;;;;;;;;5127526;28;20556;-88
2021/03/23 12:46:18;;;;;;;35.92;22.98;;;;;;;;;;5095528;28;20041;-88
2021/03/23 12:48:48;;;;;;;31.17;21.58;;;;;;;;;;5090698;28;20032;-88
2021/03/23 12:51:25;;;;;;;32.33;22.25;;;;;;;;;;5106914;28;20040;-86
2021/03/23 12:53:53;;;;;;;32.83;22.25;;;;;;;;;;5119127;28;20040;-87
2021/03/23 12:56:21;;;;;;;35.03;22.67;;;;;;;;;;5128852;28;20088;-87
2021/03/23 12:58:49;;;;;;;34.40;22.95;;;;;;;;;;5117751;28;20400;-87
2021/03/23 13:01:18;;;;;;;30.38;20.23;;;;;;;;;;5090792;28;20112;-88
2021/03/23 13:03:45;;;;;;;31.60;21.40;;;;;;;;;;5090645;28;20456;-88
2021/03/23 13:06:15;;;;;;;31.25;21.50;;;;;;;;;;5090739;28;20123;-87
2021/03/23 13:08:44;;;;;;;34.15;22.02;;;;;;;;;;5120463;28;20057;-88
2021/03/23 13:11:16;;;;;;;33.10;22.33;;;;;;;;;;5127190;28;20040;-87
2021/03/23 13:13:46;;;;;;;36.17;23.25;;;;;;;;;;5123721;28;20040;-90
2021/03/23 13:16:14;;;;;;;33.10;22.50;;;;;;;;;;5127548;28;20043;-89
2021/03/23 13:18:42;;;;;;;33.17;22.25;;;;;;;;;;5125481;28;20439;-88
2021/03/23 13:21:14;;;;;;;33.92;22.38;;;;;;;;;;5115799;28;20032;-89
2021/03/23 13:23:47;;;;;;;36.13;22.25;;;;;;;;;;5106595;28;20059;-88
2021/03/23 13:26:14;;;;;;;34.25;22.45;;;;;;;;;;5090775;28;20055;-88
2021/03/23 13:28:50;;;;;;;33.10;23.13;;;;;;;;;;5090092;28;20036;-88
2021/03/23 13:31:18;;;;;;;33.35;23.02;;;;;;;;;;5107422;28;20041;-88
2021/03/23 13:33:47;;;;;;;36.83;23.90;;;;;;;;;;5111578;28;20040;-88
2021/03/23 13:36:41;;;;;;;33.42;23.15;;;;;;;;;;5127436;28;20043;-89
2021/03/23 13:39:11;;;;;;;31.98;22.42;;;;;;;;;;5106866;28;20044;-89
2021/03/23 13:41:39;;;;;;;34.40;23.48;;;;;;;;;;5127501;28;20063;-90
2021/03/23 13:44:08;;;;;;;38.40;24.35;;;;;;;;;;5126884;28;20044;-89
2021/03/23 13:46:39;;;;;;;36.78;24.65;;;;;;;;;;5127465;28;20470;-89
2021/03/23 13:49:07;;;;;;;40.17;24.98;;;;;;;;;;5110017;28;20044;-88
2021/03/23 13:51:36;;;;;;;34.90;24.42;;;;;;;;;;5127146;28;20043;-88
2021/03/23 13:54:05;;;;;;;33.08;23.52;;;;;;;;;;5127755;28;20127;-87
2021/03/23 13:56:32;;;;;;;38.42;25.02;;;;;;;;;;5109622;28;20452;-88
2021/03/23 13:58:59;;;;;;;36.70;26.48;;;;;;;;;;5126315;28;20486;-87
2021/03/23 14:01:26;;;;;;;35.22;25.40;;;;;;;;;;5127192;28;20047;-88
2021/03/23 14:03:54;;;;;;;41.00;26.77;;;;;;;;;;5127609;28;20101;-88
2021/03/23 14:06:22;;;;;;;40.95;27.15;;;;;;;;;;5109923;28;20434;-88
2021/03/23 14:08:50;;;;;;;41.90;26.80;;;;;;;;;;5127798;28;20391;-87
2021/03/23 14:11:19;;;;;;;37.00;27.40;;;;;;;;;;5126871;28;20089;-87
2021/03/23 14:13:46;;;;;;;38.83;25.27;;;;;;;;;;5125964;28;20089;-88
2021/03/23 14:16:14;;;;;;;37.42;25.17;;;;;;;;;;5126486;28;20062;-87
2021/03/23 14:18:41;;;;;;;40.35;25.77;;;;;;;;;;5109575;28;20121;-88
2021/03/23 14:21:09;;;;;;;39.63;26.13;;;;;;;;;;5126299;28;20068;-88
2021/03/23 14:23:39;;;;;;;37.53;24.75;;;;;;;;;;5126764;28;20048;-88
2021/03/23 14:26:07;;;;;;;35.33;24.08;;;;;;;;;;5126411;28;20044;-88
2021/03/23 14:28:35;;;;;;;37.53;26.48;;;;;;;;;;5126688;28;20066;-89
2021/03/23 14:31:04;;;;;;;38.70;25.17;;;;;;;;;;5126672;28;20391;-87
2021/03/23 14:33:31;;;;;;;36.20;24.58;;;;;;;;;;5119383;28;20044;-88
2021/03/23 14:36:00;;;;;;;37.65;25.52;;;;;;;;;;5089277;28;20041;-88
2021/03/23 14:38:29;;;;;;;39.10;26.45;;;;;;;;;;5091080;28;20166;-88
2021/03/23 14:40:58;;;;;;;37.28;25.02;;;;;;;;;;5109766;28;20495;-88
2021/03/23 14:43:26;;;;;;;39.05;25.83;;;;;;;;;;5110183;28;20541;-88
2021/03/23 14:45:53;;;;;;;41.55;25.27;;;;;;;;;;5119128;28;20112;-88